createdAt,value
2022-11-13T00:00:06.249Z,37.70
2022-11-13T00:02:57.903Z,39.00
2022-11-13T00:05:31.218Z,44.60
2022-11-13T00:08:03.111Z,36.20
2022-11-13T00:10:35.129Z,33.10
2022-11-13T00:13:07.008Z,39.90
2022-11-13T00:15:38.735Z,39.00
2022-11-13T00:18:10.447Z,38.70
2022-11-13T00:20:42.087Z,36.60
2022-11-13T00:23:13.739Z,34.90
2022-11-13T00:25:45.474Z,33.30
2022-11-13T00:28:17.389Z,34.80
2022-11-13T00:30:49.041Z,34.40
2022-11-13T00:33:38.251Z,32.50
2022-11-13T00:36:16.628Z,31.10
2022-11-13T00:38:48.354Z,35.10
2022-11-13T00:41:20.667Z,29.50
2022-11-13T00:43:52.485Z,36.60
2022-11-13T00:46:24.299Z,35.10
2022-11-13T00:48:56.010Z,34.80
2022-11-13T00:51:27.807Z,34.90
2022-11-13T00:53:59.691Z,31.50
2022-11-13T00:56:31.825Z,34.80
2022-11-13T00:59:03.557Z,36.60
2022-11-13T01:01:35.278Z,34.50
2022-11-13T01:04:07.355Z,38.20
2022-11-13T01:06:38.991Z,43.20
2022-11-13T01:09:10.717Z,41.10
2022-11-13T01:11:42.573Z,46.60
2022-11-13T01:14:14.311Z,47.50
2022-11-13T01:16:46.125Z,41.90
2022-11-13T01:19:17.780Z,45.00
2022-11-13T01:21:49.370Z,38.60
2022-11-13T01:24:21.046Z,43.30
2022-11-13T01:26:52.759Z,45.30
2022-11-13T01:29:24.413Z,42.50
2022-11-13T01:31:56.029Z,37.60
2022-11-13T01:34:27.858Z,36.70
2022-11-13T01:36:59.661Z,39.00
2022-11-13T01:39:31.579Z,46.30
2022-11-13T01:42:03.647Z,40.00
2022-11-13T01:44:53.218Z,39.50
2022-11-13T01:47:25.903Z,36.90
2022-11-13T01:50:01.445Z,38.60
2022-11-13T01:52:37.734Z,38.40
2022-11-13T01:55:13.978Z,39.00
2022-11-13T01:57:45.689Z,37.90
2022-11-13T02:00:17.830Z,36.60
2022-11-13T02:02:49.504Z,37.60
2022-11-13T02:05:21.535Z,42.00
2022-11-13T02:07:53.858Z,38.60
2022-11-13T02:10:25.805Z,37.20
2022-11-13T02:12:58.841Z,36.80
2022-11-13T02:15:33.012Z,38.50
2022-11-13T02:18:07.181Z,38.10
2022-11-13T02:20:52.098Z,37.10
2022-11-13T02:23:32.718Z,41.30
2022-11-13T02:26:06.043Z,41.90
2022-11-13T02:28:37.776Z,40.60
2022-11-13T02:31:12.767Z,35.20
2022-11-13T02:33:44.524Z,36.20
2022-11-13T02:36:17.946Z,41.50
2022-11-13T02:38:51.127Z,35.70
2022-11-13T02:41:22.905Z,35.60
2022-11-13T02:43:54.600Z,39.90
2022-11-13T02:46:26.307Z,42.00
2022-11-13T02:48:57.896Z,41.90
2022-11-13T02:51:29.800Z,42.10
2022-11-13T02:54:01.703Z,38.50
2022-11-13T02:56:35.525Z,43.80
2022-11-13T02:59:07.255Z,38.80
2022-11-13T03:01:38.929Z,41.10
2022-11-13T03:04:10.846Z,35.20
2022-11-13T03:06:42.707Z,37.20
2022-11-13T03:09:14.458Z,38.70
2022-11-13T03:11:46.996Z,37.90
2022-11-13T03:14:18.810Z,44.30
2022-11-13T03:16:50.427Z,37.80
2022-11-13T03:19:22.119Z,43.60
2022-11-13T03:21:54.059Z,42.60
2022-11-13T03:24:25.785Z,44.70
2022-11-13T03:26:57.661Z,42.60
2022-11-13T03:29:29.401Z,41.80
2022-11-13T03:32:01.034Z,40.10
2022-11-13T03:34:33.232Z,38.50
2022-11-13T03:37:04.927Z,38.00
2022-11-13T03:39:36.564Z,38.40
2022-11-13T03:42:08.422Z,47.80
2022-11-13T03:44:40.267Z,47.80
2022-11-13T03:47:12.018Z,45.80
2022-11-13T03:49:43.673Z,42.40
2022-11-13T03:52:15.322Z,43.70
2022-11-13T03:54:47.009Z,44.70
2022-11-13T03:57:18.730Z,43.70
2022-11-13T03:59:50.386Z,51.10
2022-11-13T04:02:22.094Z,47.30
2022-11-13T04:04:53.701Z,50.00
2022-11-13T04:07:25.389Z,47.40
2022-11-13T04:09:57.187Z,48.20
2022-11-13T04:12:30.854Z,50.30
2022-11-13T04:17:32.566Z,48.10
2022-11-13T04:20:04.350Z,47.90
2022-11-13T04:22:36.063Z,46.70
2022-11-13T04:25:09.194Z,46.80
2022-11-13T04:27:41.654Z,54.20
2022-11-13T04:30:14.455Z,44.30
2022-11-13T04:32:46.075Z,48.30
2022-11-13T04:35:17.793Z,47.40
2022-11-13T04:37:49.457Z,51.10
2022-11-13T04:40:21.727Z,49.70
2022-11-13T04:42:53.375Z,51.50
2022-11-13T04:45:27.940Z,52.20
2022-11-13T04:47:59.608Z,49.80
2022-11-13T04:50:31.261Z,61.20
2022-11-13T04:53:02.885Z,60.50
2022-11-13T04:55:34.691Z,67.60
2022-11-13T04:58:06.451Z,55.50
2022-11-13T05:00:38.057Z,58.90
2022-11-13T05:03:09.801Z,53.40
2022-11-13T05:05:41.606Z,56.20
2022-11-13T05:08:13.222Z,53.00
2022-11-13T05:10:46.799Z,56.40
2022-11-13T05:13:18.618Z,56.30
2022-11-13T05:15:50.426Z,56.00
2022-11-13T05:18:25.899Z,60.50
2022-11-13T05:20:57.775Z,52.90
2022-11-13T05:23:29.444Z,64.70
2022-11-13T05:26:07.998Z,55.10
2022-11-13T05:28:40.389Z,57.20
2022-11-13T05:31:14.326Z,56.80
2022-11-13T05:33:47.010Z,55.60
2022-11-13T05:36:20.247Z,60.30
2022-11-13T05:38:51.993Z,55.80
2022-11-13T05:41:24.447Z,60.40
2022-11-13T05:43:59.791Z,53.10
2022-11-13T05:46:32.483Z,56.30
2022-11-13T05:49:05.855Z,57.00
2022-11-13T05:51:37.544Z,54.80
2022-11-13T05:54:09.659Z,45.00
2022-11-13T05:56:41.744Z,42.50
2022-11-13T05:59:13.511Z,34.80
2022-11-13T06:01:45.200Z,36.70
2022-11-13T06:04:16.985Z,32.20
2022-11-13T06:06:48.793Z,37.80
2022-11-13T06:09:20.802Z,37.50
2022-11-13T06:11:52.659Z,36.20
2022-11-13T06:14:24.668Z,41.40
2022-11-13T06:16:57.451Z,41.60
2022-11-13T06:19:29.440Z,43.90
2022-11-13T06:22:01.291Z,42.80
2022-11-13T06:24:32.896Z,41.50
2022-11-13T06:27:04.750Z,36.50
2022-11-13T06:29:36.430Z,37.40
2022-11-13T06:32:08.492Z,47.90
2022-11-13T06:34:40.093Z,38.00
2022-11-13T06:37:11.743Z,48.50
2022-11-13T06:39:43.384Z,40.00
2022-11-13T06:42:15.206Z,41.30
2022-11-13T06:44:46.813Z,34.40
2022-11-13T06:47:18.435Z,35.00
2022-11-13T06:49:50.134Z,32.80
2022-11-13T06:52:22.118Z,46.50
2022-11-13T06:54:53.913Z,40.10
2022-11-13T06:57:25.566Z,41.90
2022-11-13T06:59:57.268Z,40.00
2022-11-13T07:02:28.897Z,39.10
2022-11-13T07:05:00.498Z,38.70
2022-11-13T07:07:32.342Z,32.30
2022-11-13T07:10:04.447Z,32.00
2022-11-13T07:12:36.266Z,33.30
2022-11-13T07:15:09.499Z,30.60
2022-11-13T07:17:41.120Z,33.10
2022-11-13T07:20:13.698Z,33.10
2022-11-13T07:22:45.405Z,32.30
2022-11-13T07:25:17.291Z,35.80
2022-11-13T07:27:49.297Z,35.10
2022-11-13T07:30:22.115Z,31.40
2022-11-13T07:32:55.266Z,28.50
2022-11-13T07:35:26.876Z,33.70
2022-11-13T07:37:59.937Z,38.10
2022-11-13T07:40:31.667Z,37.00
2022-11-13T07:43:06.808Z,35.10
2022-11-13T07:45:38.529Z,32.60
2022-11-13T07:48:10.662Z,38.90
2022-11-13T07:50:42.535Z,36.30
2022-11-13T07:53:14.510Z,35.80
2022-11-13T07:55:46.182Z,39.30
2022-11-13T07:58:18.337Z,42.90
2022-11-13T08:00:50.046Z,36.30
2022-11-13T08:03:21.966Z,37.40
2022-11-13T08:05:54.889Z,39.70
2022-11-13T08:08:27.004Z,45.40
2022-11-13T08:10:59.490Z,36.60
2022-11-13T08:13:31.179Z,46.10
2022-11-13T08:16:03.859Z,39.20
2022-11-13T08:18:35.785Z,42.80
2022-11-13T08:21:14.528Z,39.30
2022-11-13T08:23:47.163Z,44.70
2022-11-13T08:26:19.649Z,42.70
2022-11-13T08:28:51.547Z,45.50
2022-11-13T08:31:23.177Z,43.70
2022-11-13T08:33:54.789Z,45.80
2022-11-13T08:36:26.435Z,43.80
2022-11-13T08:38:58.085Z,41.90
2022-11-13T08:41:29.721Z,39.60
2022-11-13T08:44:01.372Z,46.90
2022-11-13T08:46:32.978Z,43.90
2022-11-13T08:49:04.724Z,48.80
2022-11-13T08:51:36.471Z,47.40
2022-11-13T08:54:08.428Z,42.10
2022-11-13T08:56:40.149Z,44.70
2022-11-13T08:59:13.111Z,44.60
2022-11-13T09:01:44.792Z,42.40
2022-11-13T09:04:16.441Z,39.90
2022-11-13T09:06:48.234Z,36.00
2022-11-13T09:09:20.005Z,41.10
2022-11-13T09:11:51.930Z,42.00
2022-11-13T09:14:25.078Z,34.50
2022-11-13T09:16:56.863Z,40.10
2022-11-13T09:19:28.529Z,46.70
2022-11-13T09:22:00.342Z,44.80
2022-11-13T09:24:31.960Z,46.00
2022-11-13T09:27:03.704Z,43.90
2022-11-13T09:29:36.401Z,42.90
2022-11-13T09:32:09.144Z,41.90
2022-11-13T09:34:41.029Z,41.70
2022-11-13T09:37:15.810Z,39.20
2022-11-13T09:39:47.509Z,45.30
2022-11-13T09:42:24.619Z,47.90
2022-11-13T09:45:03.161Z,43.70
2022-11-13T09:47:39.073Z,47.10
2022-11-13T09:50:19.148Z,41.10
2022-11-13T09:52:52.074Z,42.50
2022-11-13T09:55:29.992Z,41.30
2022-11-13T09:58:11.762Z,38.50
2022-11-13T10:00:43.671Z,33.60
2022-11-13T10:04:00.712Z,45.20
2022-11-13T10:06:36.666Z,40.50
2022-11-13T10:09:25.601Z,41.80
2022-11-13T10:12:00.172Z,44.10
2022-11-13T10:14:36.562Z,38.60
2022-11-13T10:17:19.446Z,43.90
2022-11-13T10:19:57.757Z,37.40
2022-11-13T10:22:37.034Z,38.40
2022-11-13T10:25:19.962Z,38.70
2022-11-13T10:27:57.826Z,39.00
2022-11-13T10:30:30.280Z,39.30
2022-11-13T10:33:09.302Z,43.40
2022-11-13T10:35:49.165Z,30.70
2022-11-13T10:38:25.737Z,35.10
2022-11-13T10:41:08.287Z,36.50
2022-11-13T10:43:55.316Z,36.80
2022-11-13T10:46:29.933Z,43.50
2022-11-13T10:49:16.059Z,38.80
2022-11-13T10:51:56.277Z,42.50
2022-11-13T10:54:31.001Z,41.40
2022-11-13T10:57:05.095Z,40.60
2022-11-13T10:59:46.261Z,41.10
2022-11-13T11:02:22.760Z,40.90
2022-11-13T11:05:04.441Z,38.00
2022-11-13T11:07:41.600Z,38.40
2022-11-13T11:10:30.222Z,41.00
2022-11-13T11:13:07.040Z,43.40
2022-11-13T11:15:44.306Z,34.00
2022-11-13T11:18:26.695Z,43.40
2022-11-13T11:21:02.820Z,39.40
2022-11-13T11:23:45.403Z,38.70
2022-11-13T11:26:26.043Z,39.30
2022-11-13T11:29:06.714Z,40.30
2022-11-13T11:31:45.685Z,40.50
2022-11-13T11:34:21.685Z,40.10
2022-11-13T11:37:00.198Z,43.60
2022-11-13T11:39:36.782Z,42.90
2022-11-13T11:42:21.990Z,37.30
2022-11-13T11:45:11.174Z,41.60
2022-11-13T11:47:43.113Z,43.60
2022-11-13T11:50:20.031Z,41.80
2022-11-13T11:53:07.425Z,41.20
2022-11-13T11:56:25.097Z,43.40
2022-11-13T11:59:17.045Z,43.70
2022-11-13T12:02:27.002Z,41.00
2022-11-13T12:05:18.694Z,42.80
2022-11-13T12:08:14.470Z,46.00
2022-11-13T12:10:54.686Z,42.30
2022-11-13T12:13:45.414Z,44.70
2022-11-13T12:16:25.491Z,46.50
2022-11-13T12:19:06.171Z,45.70
2022-11-13T12:21:49.066Z,41.80
2022-11-13T12:24:39.594Z,43.50
2022-11-13T12:27:26.989Z,41.60
2022-11-13T12:30:10.086Z,45.90
2022-11-13T12:33:04.266Z,44.80
2022-11-13T12:35:36.968Z,44.90
2022-11-13T12:38:24.152Z,45.70
2022-11-13T12:41:02.496Z,42.50
2022-11-13T12:43:50.715Z,45.20
2022-11-13T12:46:22.941Z,45.30
2022-11-13T12:48:54.562Z,48.10
2022-11-13T12:51:26.253Z,42.50
2022-11-13T12:53:58.419Z,38.40
2022-11-13T12:56:35.583Z,47.50
2022-11-13T12:59:32.045Z,46.10
2022-11-13T13:02:22.124Z,49.10
2022-11-13T13:05:09.402Z,46.30
2022-11-13T13:08:05.256Z,53.80
2022-11-13T13:10:52.373Z,39.10
2022-11-13T13:13:35.074Z,46.30
2022-11-13T13:16:09.507Z,45.50
2022-11-13T13:18:42.753Z,46.30
2022-11-13T13:21:16.590Z,49.60
2022-11-13T13:23:53.386Z,48.90
2022-11-13T13:26:27.340Z,51.00
2022-11-13T13:29:27.235Z,48.10
2022-11-13T13:32:15.487Z,47.00
2022-11-13T13:35:02.943Z,46.40
2022-11-13T13:37:44.769Z,46.30
2022-11-13T13:40:27.941Z,43.60
2022-11-13T13:43:35.290Z,48.20
2022-11-13T13:46:15.909Z,47.40
2022-11-13T13:48:50.270Z,45.40
2022-11-13T13:51:29.827Z,52.60
2022-11-13T13:54:07.950Z,42.70
2022-11-13T13:56:44.574Z,40.60
2022-11-13T13:59:22.126Z,47.50
2022-11-13T14:01:59.670Z,45.20
2022-11-13T14:04:51.813Z,51.10
2022-11-13T14:07:27.849Z,45.50
2022-11-13T14:10:16.512Z,44.30
2022-11-13T14:12:49.458Z,45.60
2022-11-13T14:15:31.461Z,52.20
2022-11-13T14:18:15.996Z,47.40
2022-11-13T14:20:53.712Z,45.30
2022-11-13T14:23:29.482Z,53.70
2022-11-13T14:26:01.855Z,53.30
2022-11-13T14:28:35.933Z,48.10
2022-11-13T14:31:12.346Z,48.80
2022-11-13T14:33:47.870Z,50.10
2022-11-13T14:36:40.926Z,50.10
2022-11-13T14:39:22.206Z,60.50
2022-11-13T14:41:58.227Z,54.00
2022-11-13T14:44:32.530Z,59.60
2022-11-13T14:47:07.651Z,60.80
2022-11-13T14:49:40.734Z,60.10
2022-11-13T14:52:24.764Z,69.00
2022-11-13T14:57:52.935Z,56.30
2022-11-13T15:00:34.197Z,54.40
2022-11-13T15:03:07.691Z,56.90
2022-11-13T15:05:39.340Z,61.50
2022-11-13T15:08:16.201Z,57.00
2022-11-13T15:10:47.910Z,61.30
2022-11-13T15:13:20.798Z,61.20
2022-11-13T15:15:52.731Z,60.70
2022-11-13T15:18:24.579Z,62.00
2022-11-13T15:20:56.204Z,83.30
2022-11-13T15:23:29.410Z,74.80
2022-11-13T15:26:01.335Z,58.20
2022-11-13T15:28:33.084Z,59.30
2022-11-13T15:31:07.231Z,58.10
2022-11-13T15:33:38.964Z,62.60
2022-11-13T15:36:12.655Z,68.10
2022-11-13T15:41:17.380Z,66.50
2022-11-13T15:43:51.878Z,61.20
2022-11-13T15:46:26.506Z,66.10
2022-11-13T15:48:58.309Z,65.40
2022-11-13T15:51:34.294Z,62.80
2022-11-13T15:54:25.629Z,63.20
2022-11-13T15:56:58.361Z,65.30
2022-11-13T15:59:30.091Z,69.30
2022-11-13T16:02:01.763Z,69.40
2022-11-13T16:04:50.843Z,68.60
2022-11-13T16:07:30.195Z,69.70
2022-11-13T16:10:01.978Z,71.90
2022-11-13T16:12:33.752Z,66.60
2022-11-13T16:15:06.438Z,73.10
2022-11-13T16:17:43.938Z,72.20
2022-11-13T16:20:19.451Z,84.70
2022-11-13T16:22:51.272Z,81.90
2022-11-13T16:25:24.114Z,76.20
2022-11-13T16:27:55.767Z,74.10
2022-11-13T16:30:28.448Z,77.00
2022-11-13T16:33:00.119Z,79.70
2022-11-13T16:35:31.778Z,88.50
2022-11-13T16:38:03.748Z,89.30
2022-11-13T16:40:35.768Z,86.70
2022-11-13T16:43:07.514Z,84.20
2022-11-13T16:45:40.119Z,71.20
2022-11-13T16:48:17.373Z,64.30
2022-11-13T16:50:49.030Z,66.40
2022-11-13T16:53:20.796Z,71.60
2022-11-13T16:55:52.678Z,63.40
2022-11-13T16:58:24.299Z,71.20
2022-11-13T17:01:00.093Z,67.10
2022-11-13T17:03:32.302Z,63.20
2022-11-13T17:06:05.420Z,73.50
2022-11-13T17:08:37.144Z,72.00
2022-11-13T17:11:14.991Z,68.90
2022-11-13T17:13:49.785Z,67.30
2022-11-13T17:16:22.386Z,65.10
2022-11-13T17:18:54.394Z,57.20
2022-11-13T17:21:29.340Z,52.90
2022-11-13T17:24:03.487Z,67.20
2022-11-13T17:26:35.200Z,64.70
2022-11-13T17:29:07.445Z,71.20
2022-11-13T17:31:39.255Z,71.20
2022-11-13T17:34:11.160Z,70.10
2022-11-13T17:36:42.951Z,73.70
2022-11-13T17:39:14.676Z,76.00
2022-11-13T17:41:46.481Z,77.30
2022-11-13T17:44:18.227Z,68.30
2022-11-13T17:46:50.336Z,83.80
2022-11-13T17:49:22.240Z,71.30
2022-11-13T17:51:53.885Z,66.60
2022-11-13T17:54:25.886Z,65.70
2022-11-13T17:56:57.604Z,63.70
2022-11-13T17:59:29.390Z,55.70
2022-11-13T18:02:01.186Z,63.80
2022-11-13T18:04:32.856Z,63.30
2022-11-13T18:07:04.607Z,69.10
2022-11-13T18:09:36.811Z,67.00
2022-11-13T18:12:09.344Z,64.60
2022-11-13T18:14:41.050Z,69.90
2022-11-13T18:17:12.638Z,68.40
2022-11-13T18:19:44.469Z,72.40
2022-11-13T18:22:16.144Z,70.00
2022-11-13T18:24:47.897Z,73.70
2022-11-13T18:27:19.778Z,66.60
2022-11-13T18:29:51.691Z,75.60
2022-11-13T18:32:23.441Z,73.60
2022-11-13T18:34:55.619Z,70.70
2022-11-13T18:37:27.350Z,71.40
2022-11-13T18:39:59.507Z,59.70
2022-11-13T18:42:31.529Z,77.70
2022-11-13T18:45:06.192Z,70.90
2022-11-13T18:47:38.709Z,67.40
2022-11-13T18:50:11.306Z,67.70
2022-11-13T18:52:43.098Z,71.40
2022-11-13T18:55:14.902Z,60.50
2022-11-13T18:57:46.550Z,66.20
2022-11-13T19:00:20.223Z,68.60
2022-11-13T19:05:23.806Z,74.30
2022-11-13T19:07:55.490Z,74.20
2022-11-13T19:10:27.412Z,78.60
2022-11-13T19:12:59.135Z,63.80
2022-11-13T19:15:31.145Z,71.60
2022-11-13T19:18:02.946Z,75.30
2022-11-13T19:20:34.762Z,75.50
2022-11-13T19:23:09.186Z,78.30
2022-11-13T19:25:42.756Z,80.40
2022-11-13T19:28:14.620Z,77.80
2022-11-13T19:30:48.563Z,71.10
2022-11-13T19:33:20.284Z,65.20
2022-11-13T19:35:52.398Z,57.90
2022-11-13T19:38:25.564Z,64.40
2022-11-13T19:40:57.412Z,64.10
2022-11-13T19:43:31.691Z,74.80
2022-11-13T19:46:06.944Z,70.00
2022-11-13T19:48:42.871Z,56.00
2022-11-13T19:51:17.345Z,62.60
2022-11-13T19:53:53.968Z,76.80
2022-11-13T19:56:27.160Z,79.70
2022-11-13T19:58:59.027Z,69.70
2022-11-13T20:01:32.097Z,82.30
2022-11-13T20:04:06.368Z,78.40
2022-11-13T20:06:42.042Z,70.50
2022-11-13T20:09:13.701Z,76.90
2022-11-13T20:11:46.171Z,75.10
2022-11-13T20:14:18.365Z,67.10
2022-11-13T20:16:50.095Z,74.80
2022-11-13T20:19:21.841Z,57.90
2022-11-13T20:21:54.856Z,63.60
2022-11-13T20:24:26.532Z,72.20
2022-11-13T20:26:58.596Z,50.30
2022-11-13T20:29:32.281Z,56.70
2022-11-13T20:34:35.144Z,49.90
2022-11-13T20:37:07.029Z,54.60
2022-11-13T20:39:39.006Z,61.20
2022-11-13T20:42:10.917Z,58.10
2022-11-13T20:44:42.508Z,53.10
2022-11-13T20:47:14.181Z,54.50
2022-11-13T20:49:45.924Z,65.60
2022-11-13T20:52:17.605Z,65.90
2022-11-13T20:54:49.320Z,49.20
2022-11-13T20:57:21.419Z,51.70
2022-11-13T20:59:53.154Z,54.40
2022-11-13T21:02:24.881Z,51.00
2022-11-13T21:04:56.595Z,50.70
2022-11-13T21:07:28.308Z,42.30
2022-11-13T21:10:00.158Z,51.90
2022-11-13T21:12:33.763Z,52.20
2022-11-13T21:15:06.094Z,55.10
2022-11-13T21:17:37.922Z,53.80
2022-11-13T21:20:12.147Z,53.60
2022-11-13T21:22:43.779Z,61.20
2022-11-13T21:25:17.657Z,70.40
2022-11-13T21:27:49.323Z,61.10
2022-11-13T21:30:21.764Z,52.40
2022-11-13T21:32:53.397Z,58.70
2022-11-13T21:35:25.118Z,56.40
2022-11-13T21:37:57.048Z,56.30
2022-11-13T21:40:28.653Z,57.70
2022-11-13T21:43:00.325Z,64.60
2022-11-13T21:45:34.688Z,52.30
2022-11-13T21:48:07.147Z,60.40
2022-11-13T21:50:38.730Z,61.30
2022-11-13T21:53:10.416Z,54.90
2022-11-13T21:56:02.595Z,49.20
2022-11-13T21:58:35.513Z,46.70
2022-11-13T22:01:07.625Z,50.20
2022-11-13T22:03:39.674Z,48.50
2022-11-13T22:06:23.250Z,58.60
2022-11-13T22:08:59.285Z,48.70
2022-11-13T22:11:34.322Z,45.90
2022-11-13T22:14:06.407Z,50.70
2022-11-13T22:16:40.678Z,46.80
2022-11-13T22:19:15.122Z,53.20
2022-11-13T22:21:48.024Z,44.80
2022-11-13T22:24:19.925Z,31.30
2022-11-13T22:26:51.587Z,44.40
2022-11-13T22:29:23.232Z,48.40
2022-11-13T22:31:54.931Z,46.50
2022-11-13T22:34:26.586Z,52.70
2022-11-13T22:36:58.389Z,59.40
2022-11-13T22:39:30.062Z,55.60
2022-11-13T22:42:01.733Z,49.80
2022-11-13T22:44:54.355Z,40.30
2022-11-13T22:47:25.297Z,46.10
2022-11-13T22:49:56.933Z,50.00
2022-11-13T22:52:28.963Z,48.50
2022-11-13T22:55:02.916Z,50.80
2022-11-13T22:57:35.548Z,53.70
2022-11-13T23:00:09.514Z,52.40
2022-11-13T23:02:46.957Z,51.50
2022-11-13T23:05:19.565Z,42.30
2022-11-13T23:07:51.360Z,40.80
2022-11-13T23:10:25.703Z,36.40
2022-11-13T23:12:57.471Z,43.10
2022-11-13T23:15:29.257Z,37.80
2022-11-13T23:18:03.536Z,42.20
2022-11-13T23:20:42.742Z,46.00
2022-11-13T23:23:16.010Z,55.90
2022-11-13T23:25:47.674Z,48.50
2022-11-13T23:28:19.654Z,55.30
2022-11-13T23:30:51.486Z,49.80
2022-11-13T23:33:23.171Z,51.80
2022-11-13T23:35:56.311Z,47.90
2022-11-13T23:38:28.381Z,52.40
2022-11-13T23:41:01.628Z,42.60
2022-11-13T23:44:02.234Z,61.80
2022-11-13T23:46:26.313Z,55.40
2022-11-13T23:48:58.139Z,59.60
2022-11-13T23:51:29.723Z,56.70
2022-11-13T23:54:01.722Z,63.70
2022-11-13T23:56:33.352Z,55.50
2022-11-13T23:59:05.182Z,53.80
